Аэропорт
Тайвань-Таоюань (RCTP)

 RCTP / TPE

Taiwan, Province of China
TW-TAO
Тайбэй
 25.07770, 121.23300  / 106 ft

 RCTP 182230Z 20008KT 9999 FEW012 BKN015 28/26 Q1012 NOSIG RMK A2991
 TAF RCTP 181700Z 1818/1924 01010KT 9999 FEW015 BKN032 TEMPO 1818/1824 06005KT FEW005 BKN014 TEMPO 1900/1906 27008KT TEMPO 1906/1912 01017KT FEW005 BKN011 BKN020 TEMPO 1913/1919 04005KT FEW008 BKN014 TEMPO 1919/1924 4000 SHRA SCT005 BKN008 BKN020

2020 © VATRUS division (Privacy Policy)